• Join FlightAware (Why Join?)
  • Login
  • US Flag 
04:21AM EDT


 

Airport Tracker/Info


-or-


 

Live Flight TrackerFlight Track Log ✈ N225SB ✈ 05-Nov-2013 ✈ KFTY - KSYR

Flight Track Log - Related Links

Times and Time Zones

All times are in EST time to prevent confusion due to time zone crossing. See the N225SB flight status page for this flight to view local times or setup timezone preferences in your user account.

Time Position Orientation Groundspeed Altitude Reporting Facility
EST Latitude Longitude Course Direction KTS MPH feet Rate Location/Type
05:50AM 33.7833 -84.4833 23° Northeast 189 217 2,500  Level Atlanta TRACON
05:51AM 33.8500 -84.4500 23° Northeast 254 292 5,100 2,700 Climbing Atlanta TRACON
05:52AM 33.9333 -84.4167 18° North 298 343 7,900 2,640 Climbing Atlanta TRACON
05:54AM 34.0400 -84.3847 14° North 341 392 11,200 2,400 Climbing Atlanta Center
05:55AM 34.1300 -84.3625 12° North 336 387 13,400 2,100 Climbing Atlanta Center
05:56AM 34.2217 -84.3403 11° North 327 376 15,500 2,040 Climbing Atlanta Center
05:57AM 34.3158 -84.3131 13° North 333 383 17,500 1,740 Climbing Atlanta Center
05:58AM 34.4097 -84.2881 12° North 338 389 19,000 1,320 Climbing Atlanta Center
06:00AM 34.5997 -84.2406 12° North 345 397 21,600 1,140 Climbing Atlanta Center
06:01AM 34.6917 -84.2131 14° North 361 415 22,500 900 Climbing Atlanta Center
06:04AM 35.0870 -84.1120 14° North 100 115 26,200 600 Climbing FlightAware
06:05AM 35.1750 -84.0890 12° North 418 481 25,400 -660 Descending FlightAware
06:06AM 35.2140 -84.0780 13° North 418 481 25,400  Level FlightAware
06:07AM 35.3100 -84.0510 13° North 418 481 25,400  Level FlightAware
06:08AM 35.3870 -84.0290 13° North 418 481 25,400  Level FlightAware
06:08AM 35.4630 -84.0070 13° North 418 481 25,400  Level FlightAware
06:09AM 35.5020 -83.9960 13° North 418 481 25,400 3,180 Level FlightAware
06:10AM 35.6806 -83.9544 13° North 401 461 29,600 2,580 Climbing Atlanta Center
06:11AM 35.7994 -83.9261 11° North 414 476 30,400 840 Climbing Atlanta Center
06:12AM 35.9122 -83.8822 17° North 419 482 31,300 840 Climbing Atlanta Center
06:13AM 36.0164 -83.7922 35° Northeast 428 493 32,100 780 Climbing Atlanta Center
06:14AM 36.1142 -83.6994 37° Northeast 439 505 32,900 780 Climbing Atlanta Center
06:15AM 36.2139 -83.6011 38° Northeast 450 518 33,700 780 Climbing Atlanta Center
06:16AM 36.3244 -83.4911 39° Northeast 451 519 34,700 780 Climbing Indianapolis Center
06:17AM 36.4231 -83.3967 38° Northeast 448 516 35,500 780 Climbing Indianapolis Center
06:18AM 36.5219 -83.3014 38° Northeast 449 517 36,300 720 Climbing Indianapolis Center
06:19AM 36.6175 -83.2078 38° Northeast 440 506 37,000 720 Climbing Indianapolis Center
06:20AM 36.7139 -83.1144 38° Northeast 436 502 37,800 720 Climbing Indianapolis Center
06:21AM 36.8081 -83.0219 38° Northeast 432 497 38,500 600 Climbing Indianapolis Center
06:22AM 36.9053 -82.9328 36° Northeast 430 495 39,100 540 Climbing Indianapolis Center
06:23AM 36.9975 -82.8419 38° Northeast 424 488 39,600 540 Climbing Indianapolis Center
06:24AM 37.0956 -82.7383 40° Northeast 426 490 40,200 540 Climbing Indianapolis Center
06:25AM 37.1872 -82.6475 38° Northeast 420 483 40,700 360 Climbing Indianapolis Center
06:26AM 37.2789 -82.5564 38° Northeast 419 482 41,000 120 Climbing Indianapolis Center
06:27AM 37.3717 -82.4642 38° Northeast 425 489 41,000  Level Indianapolis Center
06:28AM 37.4667 -82.3703 38° Northeast 432 497 41,000  Level Indianapolis Center
06:29AM 37.5628 -82.2731 39° Northeast 440 506 41,000  Level Indianapolis Center
06:30AM 37.6594 -82.1739 39° Northeast 446 513 41,000  Level Indianapolis Center
06:31AM 37.7586 -82.0747 38° Northeast 452 520 41,000  Level Indianapolis Center
06:32AM 37.8450 -81.9856 39° Northeast 454 522 41,000  Level Indianapolis Center
06:33AM 37.9453 -81.8847 38° Northeast 457 526 41,000  Level Indianapolis Center
06:34AM 38.0450 -81.7819 39° Northeast 460 529 41,000  Level Indianapolis Center
06:35AM 38.1644 -81.6575 39° Northeast 462 532 41,000  Level Indianapolis Center
06:36AM 38.2653 -81.5536 39° Northeast 464 534 41,000  Level Indianapolis Center
06:37AM 38.3644 -81.4494 39° Northeast 465 535 41,000  Level Indianapolis Center
06:38AM 38.4642 -81.3453 39° Northeast 467 537 41,000  Level Indianapolis Center
06:39AM 38.5633 -81.2417 39° Northeast 465 535 41,000  Level Indianapolis Center
06:40AM 38.6625 -81.1372 39° Northeast 466 536 41,000  Level Indianapolis Center
06:41AM 38.7622 -81.0317 40° Northeast 468 539 41,000  Level Indianapolis Center
06:42AM 38.8617 -80.9269 39° Northeast 465 535 41,000  Level Indianapolis Center
06:43AM 38.9636 -80.8208 39° Northeast 470 541 41,000  Level Indianapolis Center
06:44AM 39.0639 -80.7139 40° Northeast 467 537 41,000  Level Indianapolis Center
06:45AM 39.1642 -80.6053 40° Northeast 469 540 41,000  Level Indianapolis Center
06:46AM 39.2639 -80.4975 40° Northeast 467 537 41,000  Level Indianapolis Center
06:47AM 39.3647 -80.3892 40° Northeast 469 540 41,000  Level Indianapolis Center
06:48AM 39.4653 -80.2806 40° Northeast 470 541 41,000  Level Indianapolis Center
06:49AM 39.5658 -80.1706 40° Northeast 472 543 41,000  Level Indianapolis Center
06:50AM 39.6864 -80.0394 40° Northeast 471 542 41,000  Level Indianapolis Center
06:51AM 39.7883 -79.9297 40° Northeast 473 544 41,000  Level Indianapolis Center
06:52AM 39.8889 -79.8183 40° Northeast 473 544 41,000  Level Indianapolis Center
06:53AM 39.9958 -79.7319 32° Northeast 463 533 41,000  Level Cleveland Center
06:54AM 40.1017 -79.6472 31° Northeast 453 521 41,000 -480 Level Cleveland Center
06:55AM 40.2092 -79.5600 32° Northeast 459 528 40,100 -960 Descending Cleveland Center
06:56AM 40.3192 -79.4714 32° Northeast 468 539 39,100 -1,020 Descending Cleveland Center
06:57AM 40.4297 -79.3811 32° Northeast 471 542 38,100 -1,080 Descending Cleveland Center
06:58AM 40.5486 -79.2853 31° Northeast 471 542 37,000 -1,260 Descending Cleveland Center
06:59AM 40.6739 -79.1828 32° Northeast 472 543 35,600 -1,680 Descending Cleveland Center
07:00AM 40.7894 -79.0911 31° Northeast 483 556 33,600 -1,320 Descending Cleveland Center
07:01AM 40.9047 -78.9956 32° Northeast 489 563 33,000 -300 Descending Cleveland Center
07:02AM 41.0222 -78.9006 31° Northeast 496 571 33,000  Level Cleveland Center
07:04AM 41.1389 -78.8028 32° Northeast 498 573 33,000  Level Cleveland Center
07:05AM 41.2567 -78.7056 32° Northeast 499 574 33,000  Level Cleveland Center
07:06AM 41.3894 -78.5942 32° Northeast 498 573 33,000  Level Cleveland Center
07:07AM 41.5044 -78.4969 32° Northeast 490 564 33,000 -780 Level Cleveland Center
07:08AM 41.6183 -78.4003 32° Northeast 487 560 31,500 -1,500 Descending Cleveland Center
07:09AM 41.7339 -78.3039 32° Northeast 490 564 30,000 -1,260 Descending Cleveland Center
07:10AM 41.8500 -78.2056 32° Northeast 495 570 29,000 -540 Descending Cleveland Center
07:11AM 41.9850 -78.0897 33° Northeast 493 567 29,000  Level Cleveland Center
07:12AM 42.0983 -77.9883 34° Northeast 492 566 29,000  Level Cleveland Center
07:13AM 42.1950 -77.8561 45° Northeast 495 570 29,000  Level Cleveland Center
07:14AM 42.2917 -77.7247 45° Northeast 497 572 29,000 -300 Level Cleveland Center
07:15AM 42.3856 -77.5931 46° Northeast 493 567 28,500 -540 Descending Cleveland Center
07:16AM 42.4822 -77.4617 45° Northeast 494 568 28,000 -1,080 Descending Cleveland Center
07:17AM 42.5892 -77.3128 46° Northeast 478 550 26,400 -2,100 Descending Cleveland Center
07:18AM 42.6800 -77.1858 46° Northeast 475 547 23,800 -2,520 Descending Cleveland Center
07:19AM 42.7700 -77.0592 46° Northeast 470 541 21,300 -2,520 Descending Cleveland Center
07:20AM 42.8456 -76.9331 51° Northeast 434 499 18,700 -2,280 Descending Cleveland Center
07:21AM 42.9003 -76.8031 60° Northeast 399 459 16,700 -2,340 Descending Cleveland Center
07:22AM 42.9456 -76.6650 66° East 378 435 14,000 -2,880 Descending Cleveland Center
07:23AM 42.9911 -76.5503 61° Northeast 348 400 10,900 -2,880 Descending Cleveland Center
07:24AM 43.0461 -76.4600 50° Northeast 316 364 8,200 -2,580 Descending Cleveland Center
07:25AM 43.0881 -76.3547 61° Northeast 268 308 5,700 -2,040 Descending Cleveland Center
07:26AM 43.1047 -76.2756 74° East 192 221 4,100 -1,500 Descending Boston Center
07:26AM 43.1072 -76.2639 74° East 210 242 3,700 -1,680 Descending Boston Center
07:27AM 43.1044 -76.2142 94° East 145 167 2,400 -1,620 Descending Boston Center
07:27AM 43.1061 -76.2025 79° East 183 211 2,100 -1,380 Descending Boston Center
07:28AM 43.1058 -76.1561 90° East 123 142 900 -1,200 Descending Boston Center
07:28AM 43.1069 -76.1533 61° Northeast 155 178 900 -420 Level Boston Center
07:29AM 43.1081 -76.1069 88° East 135 155 400 -540 Descending Boston Center
07:31AM 43.1000 -76.1000 75° East  Level FlightAware Approximate
07:38AM 43.1112 -76.1063 75° East  Level Estimated
07:39AM 43.1112 -76.1063 75° East  Level Estimated
07:40AM 43.1112 -76.1063 75° East  Level Estimated
07:41AM 43.1112 -76.1063 75° East  Level Estimated